createdAt,value
2019-02-19T16:57:54.028Z,1006.44
2019-02-19T16:58:55.471Z,1006.40
2019-02-19T16:59:56.886Z,1006.39
2019-02-19T17:00:58.293Z,1006.44
2019-02-19T17:01:59.690Z,1006.42
2019-02-19T17:03:01.109Z,1006.48
2019-02-19T17:04:03.450Z,1006.46
2019-02-19T17:05:03.872Z,1006.41
2019-02-19T17:06:05.297Z,1006.44
2019-02-19T17:07:06.705Z,1006.52
2019-02-19T17:08:08.110Z,1006.56
2019-02-19T17:09:09.502Z,1006.58
2019-02-19T17:10:10.909Z,1006.62
2019-02-19T17:11:12.319Z,1006.66
2019-02-19T17:12:13.719Z,1006.70
2019-02-19T17:13:15.681Z,1006.76
2019-02-19T17:14:17.074Z,1006.77
2019-02-19T17:15:18.459Z,1006.76
2019-02-19T17:16:19.887Z,1006.80
2019-02-19T17:17:21.297Z,1006.81
2019-02-19T17:18:23.167Z,1006.86
2019-02-19T17:19:24.069Z,1006.86
2019-02-19T17:20:29.180Z,1006.89
2019-02-19T17:21:26.837Z,1006.94
2019-02-19T17:22:28.235Z,1006.96
2019-02-19T17:23:29.642Z,1006.85
2019-02-19T17:24:31.062Z,1006.86
2019-02-19T17:25:32.492Z,1006.91
2019-02-19T17:26:33.892Z,1006.92
2019-02-19T17:27:35.294Z,1006.85
2019-02-19T17:28:36.680Z,1006.93
2019-02-19T17:29:39.028Z,1006.96
2019-02-19T17:30:40.427Z,1006.91
2019-02-19T17:31:41.854Z,1006.80
2019-02-19T17:32:43.243Z,1006.81
2019-02-19T17:33:44.648Z,1006.79
2019-02-19T17:34:46.037Z,1006.95
2019-02-19T17:35:47.433Z,1006.81
2019-02-19T17:36:48.829Z,1006.80
2019-02-19T17:37:50.257Z,1006.89
2019-02-19T17:38:51.671Z,1006.84
2019-02-19T17:39:53.063Z,1006.72
2019-02-19T17:40:54.476Z,1006.60
2019-02-19T17:41:55.884Z,1006.59
2019-02-19T17:42:57.301Z,1006.55
2019-02-19T17:43:58.683Z,1006.63
2019-02-19T17:45:00.216Z,1006.57
2019-02-19T17:46:01.457Z,1006.63
2019-02-19T17:47:02.861Z,1006.64
2019-02-19T17:48:04.259Z,1006.77
2019-02-19T17:49:05.670Z,1006.74
2019-02-19T17:50:07.061Z,1006.90
2019-02-19T17:51:08.480Z,1006.87
2019-02-19T17:52:09.955Z,1006.87
2019-02-19T17:53:11.379Z,1006.90
2019-02-19T17:54:12.774Z,1006.90
2019-02-19T17:55:14.194Z,1006.88
2019-02-19T17:56:15.602Z,1006.96
2019-02-19T17:57:17.102Z,1006.93
2019-02-19T17:58:18.495Z,1007.04
2019-02-19T17:59:19.915Z,1007.02
2019-02-19T18:00:21.343Z,1007.09
2019-02-19T18:01:22.783Z,1007.04
2019-02-19T18:02:24.224Z,1007.04
2019-02-19T18:03:25.687Z,1007.06
2019-02-19T18:04:27.121Z,1007.01
2019-02-19T18:05:28.521Z,1007.03
2019-02-19T18:06:29.951Z,1006.98
2019-02-19T18:07:31.359Z,1007.01
2019-02-19T18:08:33.284Z,1007.01
2019-02-19T18:09:34.692Z,1006.94
2019-02-19T18:10:36.095Z,1006.99
2019-02-19T18:11:37.581Z,1006.95
2019-02-19T18:12:39.942Z,1006.95
2019-02-19T18:13:41.349Z,1006.96
2019-02-19T18:14:42.764Z,1006.97
2019-02-19T18:15:44.212Z,1006.93
2019-02-19T18:16:45.652Z,1006.90
2019-02-19T18:17:47.049Z,1006.88
2019-02-19T18:18:48.505Z,1006.93
2019-02-19T18:19:49.908Z,1006.98
2019-02-19T18:20:52.271Z,1006.95
2019-02-19T18:21:53.727Z,1006.99
2019-02-19T18:22:55.149Z,1006.99
2019-02-19T18:23:56.660Z,1006.99
2019-02-19T18:24:58.101Z,1006.98
2019-02-19T18:26:00.201Z,1007.00
2019-02-19T18:27:01.648Z,1007.06
2019-02-19T18:28:03.106Z,1007.00
2019-02-19T18:29:04.504Z,1007.03
2019-02-19T18:30:05.951Z,1007.03
2019-02-19T18:31:07.373Z,1007.01
2019-02-19T18:32:08.839Z,1007.01
2019-02-19T18:33:10.280Z,1007.02
2019-02-19T18:34:11.715Z,1007.03
2019-02-19T18:35:13.146Z,1007.04
2019-02-19T18:36:14.608Z,1006.89
2019-02-19T18:37:16.050Z,1006.89
2019-02-19T18:38:17.464Z,1006.87
2019-02-19T18:39:18.900Z,1006.82
2019-02-19T18:40:20.341Z,1006.81
2019-02-19T18:41:21.780Z,1006.82
2019-02-19T18:42:23.232Z,1006.87
2019-02-19T18:43:24.666Z,1006.98
2019-02-19T18:44:27.114Z,1006.96
2019-02-19T18:45:28.560Z,1006.98
2019-02-19T18:46:30.012Z,1007.02
2019-02-19T18:47:31.494Z,1006.96
2019-02-19T18:48:33.790Z,1006.96
2019-02-19T18:49:35.256Z,1006.96
2019-02-19T18:50:36.674Z,1006.97
2019-02-19T18:51:38.149Z,1006.99
2019-02-19T18:52:39.577Z,1006.98
2019-02-19T18:53:41.021Z,1007.02
2019-02-19T18:54:42.498Z,1007.02
2019-02-19T18:55:43.996Z,1006.99
2019-02-19T18:56:45.426Z,1007.06
2019-02-19T18:57:46.844Z,1007.04
2019-02-19T18:58:48.279Z,1007.00
2019-02-19T18:59:49.741Z,1007.03
2019-02-19T19:00:51.191Z,1007.03
2019-02-19T19:01:52.618Z,1007.02
2019-02-19T19:02:54.063Z,1006.98
2019-02-19T19:03:55.510Z,1006.96
2019-02-19T19:04:56.917Z,1007.01
2019-02-19T19:05:58.381Z,1007.00
2019-02-19T19:06:59.848Z,1006.96
2019-02-19T19:08:01.264Z,1007.03
2019-02-19T19:09:02.690Z,1007.02
2019-02-19T19:10:04.099Z,1007.00
2019-02-19T19:11:05.530Z,1007.05
2019-02-19T19:12:07.891Z,1007.10
2019-02-19T19:13:09.340Z,1007.10
2019-02-19T19:14:10.815Z,1007.12
2019-02-19T19:15:12.442Z,1007.07
2019-02-19T19:16:13.908Z,1007.18
2019-02-19T19:17:15.374Z,1007.15
2019-02-19T19:18:20.428Z,1007.15
2019-02-19T19:19:22.600Z,1007.15
2019-02-19T19:20:24.031Z,1007.12
2019-02-19T19:21:27.015Z,1007.08
2019-02-19T19:22:27.826Z,1007.10
2019-02-19T19:23:29.259Z,1007.08
2019-02-19T19:24:30.762Z,1007.05
2019-02-19T19:25:32.836Z,1007.07
2019-02-19T19:26:34.301Z,1006.99
2019-02-19T19:27:35.800Z,1007.01
2019-02-19T19:28:37.275Z,1006.98
2019-02-19T19:29:38.836Z,1006.99
2019-02-19T19:30:42.663Z,1006.98
2019-02-19T19:31:45.085Z,1007.01
2019-02-19T19:32:48.251Z,1007.05
2019-02-19T19:33:50.428Z,1007.06
2019-02-19T19:34:51.928Z,1007.06
2019-02-19T19:35:55.662Z,1007.08
2019-02-19T19:36:55.501Z,1007.09
2019-02-19T19:37:57.584Z,1007.20
2019-02-19T19:38:59.058Z,1007.22
2019-02-19T19:40:01.191Z,1007.21
2019-02-19T19:41:03.641Z,1007.21
2019-02-19T19:42:05.109Z,1007.25
2019-02-19T19:43:09.068Z,1007.24
2019-02-19T19:44:11.517Z,1007.26
2019-02-19T19:45:13.101Z,1007.29
2019-02-19T19:46:14.616Z,1007.25
2019-02-19T19:47:17.838Z,1007.23
2019-02-19T19:48:21.009Z,1007.30
2019-02-19T19:49:24.052Z,1007.27
2019-02-19T19:50:26.109Z,1007.29
2019-02-19T19:51:27.620Z,1007.31
2019-02-19T19:52:29.951Z,1007.34
2019-02-19T19:53:32.375Z,1007.31
2019-02-19T19:54:35.083Z,1007.32
2019-02-19T19:55:39.680Z,1007.36
2019-02-19T19:56:41.758Z,1007.32
2019-02-19T19:57:46.113Z,1007.36
2019-02-19T19:58:49.727Z,1007.35
2019-02-19T19:59:51.775Z,1007.35
2019-02-19T20:00:54.019Z,1007.34
2019-02-19T20:01:55.354Z,1007.36
2019-02-19T20:02:57.752Z,1007.32
2019-02-19T20:04:00.564Z,1007.30
2019-02-19T20:05:02.773Z,1007.27
2019-02-19T20:06:04.345Z,1007.32
2019-02-19T20:07:05.827Z,1007.31
2019-02-19T20:08:08.359Z,1007.36
2019-02-19T20:09:10.667Z,1007.36
2019-02-19T20:10:12.987Z,1007.40
2019-02-19T20:11:16.002Z,1007.39
2019-02-19T20:12:18.128Z,1007.39
2019-02-19T20:13:21.703Z,1007.37
2019-02-19T20:14:24.712Z,1007.35
2019-02-19T20:15:26.873Z,1007.44
2019-02-19T20:16:28.356Z,1007.37
2019-02-19T20:17:31.756Z,1007.43
2019-02-19T20:18:39.100Z,1007.47
2019-02-19T20:19:39.627Z,1007.42
2019-02-19T20:20:42.524Z,1007.44
2019-02-19T20:21:48.021Z,1007.48
2019-02-19T20:22:51.635Z,1007.43
2019-02-19T20:23:54.869Z,1007.44
2019-02-19T20:24:58.207Z,1007.46
2019-02-19T20:26:01.121Z,1007.49
2019-02-19T20:27:03.597Z,1007.48
2019-02-19T20:28:05.022Z,1007.56
2019-02-19T20:29:07.439Z,1007.59
2019-02-19T20:30:10.153Z,1007.59
2019-02-19T20:31:12.132Z,1007.60
2019-02-19T20:32:16.108Z,1007.59
2019-02-19T20:33:18.114Z,1007.57
2019-02-19T20:34:20.406Z,1007.61
2019-02-19T20:35:23.223Z,1007.60
2019-02-19T20:36:27.974Z,1007.61
2019-02-19T20:37:31.815Z,1007.61
2019-02-19T20:38:34.934Z,1007.61
2019-02-19T20:39:38.524Z,1007.59
2019-02-19T20:40:41.521Z,1007.62
2019-02-19T20:41:43.262Z,1007.67
2019-02-19T20:42:46.138Z,1007.65
2019-02-19T20:43:47.654Z,1007.65
2019-02-19T20:44:49.094Z,1007.62
2019-02-19T20:45:53.699Z,1007.62
2019-02-19T20:46:55.850Z,1007.56
2019-02-19T20:47:59.835Z,1007.56
2019-02-19T20:49:00.524Z,1007.55
2019-02-19T20:50:02.606Z,1007.51
2019-02-19T20:51:06.028Z,1007.60
2019-02-19T20:52:07.521Z,1007.53
2019-02-19T20:53:09.663Z,1007.55
2019-02-19T20:54:12.134Z,1007.53
2019-02-19T20:55:14.360Z,1007.52
2019-02-19T20:56:16.482Z,1007.56
2019-02-19T20:57:17.955Z,1007.58
2019-02-19T20:58:19.429Z,1007.54
2019-02-19T20:59:22.526Z,1007.59
2019-02-19T21:00:22.994Z,1007.62
2019-02-19T21:01:26.585Z,1007.62
2019-02-19T21:02:28.057Z,1007.62
2019-02-19T21:03:29.528Z,1007.58
2019-02-19T21:04:30.966Z,1007.59
2019-02-19T21:05:33.527Z,1007.60
2019-02-19T21:06:36.533Z,1007.64
2019-02-19T21:07:37.062Z,1007.66
2019-02-19T21:08:39.452Z,1007.64
2019-02-19T21:09:43.706Z,1007.71
2019-02-19T21:10:42.342Z,1007.71
2019-02-19T21:11:44.740Z,1007.71
2019-02-19T21:12:46.221Z,1007.71
2019-02-19T21:13:48.658Z,1007.73
2019-02-19T21:14:50.091Z,1007.69
2019-02-19T21:15:51.513Z,1007.71
2019-02-19T21:16:52.933Z,1007.65
2019-02-19T21:17:55.258Z,1007.68
2019-02-19T21:18:56.841Z,1007.64
2019-02-19T21:19:58.276Z,1007.60
2019-02-19T21:20:59.728Z,1007.63
2019-02-19T21:22:01.240Z,1007.71
2019-02-19T21:23:03.290Z,1007.66
2019-02-19T21:24:05.298Z,1007.70
2019-02-19T21:25:06.704Z,1007.71
2019-02-19T21:26:09.463Z,1007.75
2019-02-19T21:27:10.862Z,1007.71
2019-02-19T21:28:12.258Z,1007.71
2019-02-19T21:29:13.687Z,1007.71
2019-02-19T21:30:15.089Z,1007.69
2019-02-19T21:31:17.156Z,1007.71
2019-02-19T21:32:18.645Z,1007.64
2019-02-19T21:33:20.080Z,1007.68
2019-02-19T21:34:21.518Z,1007.73
2019-02-19T21:35:22.932Z,1007.74
2019-02-19T21:36:24.331Z,1007.72
2019-02-19T21:37:26.390Z,1007.80
2019-02-19T21:38:27.822Z,1007.81
2019-02-19T21:39:29.231Z,1007.83
2019-02-19T21:40:30.629Z,1007.79
2019-02-19T21:41:32.068Z,1007.83
2019-02-19T21:42:33.476Z,1007.76
2019-02-19T21:43:34.860Z,1007.79
2019-02-19T21:44:36.258Z,1007.77
2019-02-19T21:45:37.653Z,1007.80
2019-02-19T21:46:39.060Z,1007.80
2019-02-19T21:47:40.480Z,1007.82
2019-02-19T21:48:48.052Z,1007.86
2019-02-19T21:49:44.143Z,1007.83
2019-02-19T21:50:45.612Z,1007.88
2019-02-19T21:51:53.881Z,1007.85
2019-02-19T21:52:48.368Z,1007.85
2019-02-19T21:53:49.756Z,1007.95
2019-02-19T21:54:51.147Z,1007.89
2019-02-19T21:55:52.535Z,1007.85
2019-02-19T21:56:53.927Z,1007.85
2019-02-19T21:57:55.319Z,1007.88
2019-02-19T21:58:56.713Z,1007.90
2019-02-19T21:59:58.145Z,1007.91
2019-02-19T22:00:59.533Z,1007.85
2019-02-19T22:02:00.931Z,1007.89
2019-02-19T22:03:02.421Z,1007.88
2019-02-19T22:04:03.815Z,1007.86
2019-02-19T22:05:05.203Z,1007.83
2019-02-19T22:06:06.690Z,1007.82
2019-02-19T22:07:08.086Z,1007.84
2019-02-19T22:08:09.472Z,1007.86
2019-02-19T22:09:11.017Z,1007.87
2019-02-19T22:10:12.412Z,1007.79
2019-02-19T22:11:13.798Z,1007.80
2019-02-19T22:12:15.315Z,1007.87
2019-02-19T22:13:16.704Z,1007.85
2019-02-19T22:14:18.094Z,1007.87
2019-02-19T22:15:19.480Z,1007.90
2019-02-19T22:16:20.871Z,1007.86
2019-02-19T22:17:22.266Z,1007.91
2019-02-19T22:18:23.737Z,1007.90
2019-02-19T22:19:25.138Z,1007.86
2019-02-19T22:20:26.520Z,1007.86
2019-02-19T22:21:27.916Z,1007.86
2019-02-19T22:22:29.348Z,1007.88
2019-02-19T22:23:30.759Z,1007.91
2019-02-19T22:24:32.147Z,1007.95
2019-02-19T22:25:33.580Z,1007.90
2019-02-19T22:26:34.976Z,1007.90
2019-02-19T22:27:36.369Z,1007.96
2019-02-19T22:28:37.845Z,1007.94
2019-02-19T22:29:39.348Z,1007.91
2019-02-19T22:30:40.735Z,1007.92
2019-02-19T22:31:42.121Z,1007.88
2019-02-19T22:32:43.511Z,1007.88
2019-02-19T22:33:44.961Z,1007.90
2019-02-19T22:34:46.355Z,1007.96
2019-02-19T22:35:47.734Z,1007.90
2019-02-19T22:36:49.134Z,1007.99
2019-02-19T22:37:50.532Z,1007.92
2019-02-19T22:38:51.912Z,1007.99
2019-02-19T22:39:53.303Z,1007.97
2019-02-19T22:40:55.456Z,1007.95
2019-02-19T22:41:56.042Z,1007.95
2019-02-19T22:42:57.440Z,1007.95
2019-02-19T22:43:58.845Z,1007.95
2019-02-19T22:45:00.252Z,1007.98
2019-02-19T22:46:01.638Z,1007.96
2019-02-19T22:47:03.031Z,1007.94
2019-02-19T22:48:04.880Z,1007.95
2019-02-19T22:49:06.260Z,1008.03
2019-02-19T22:50:07.774Z,1008.02
2019-02-19T22:51:09.185Z,1008.06
2019-02-19T22:52:12.568Z,1008.10
2019-02-19T22:53:11.945Z,1008.04
2019-02-19T22:54:13.331Z,1008.08
2019-02-19T22:55:14.736Z,1008.10
2019-02-19T22:56:16.168Z,1008.10
2019-02-19T22:57:17.609Z,1008.08
2019-02-19T22:58:19.011Z,1008.10
2019-02-19T22:59:20.401Z,1008.11
2019-02-19T23:00:21.813Z,1008.11
2019-02-19T23:01:23.209Z,1008.13
2019-02-19T23:02:24.615Z,1008.13
2019-02-19T23:03:26.011Z,1008.13
2019-02-19T23:04:27.414Z,1008.16
2019-02-19T23:05:28.824Z,1008.15
2019-02-19T23:06:30.224Z,1008.15
2019-02-19T23:07:31.616Z,1008.15
2019-02-19T23:08:33.022Z,1008.18
2019-02-19T23:09:34.438Z,1008.22
2019-02-19T23:10:35.814Z,1008.23
2019-02-19T23:11:37.222Z,1008.21
2019-02-19T23:12:38.612Z,1008.30
2019-02-19T23:13:40.022Z,1008.22
2019-02-19T23:14:41.418Z,1008.26
2019-02-19T23:15:42.810Z,1008.27
2019-02-19T23:16:44.249Z,1008.27
2019-02-19T23:17:45.671Z,1008.23
2019-02-19T23:18:47.082Z,1008.28
2019-02-19T23:19:48.470Z,1008.30
2019-02-19T23:20:49.865Z,1008.30
2019-02-19T23:21:51.281Z,1008.24
2019-02-19T23:22:52.693Z,1008.23
2019-02-19T23:23:54.109Z,1008.35
2019-02-19T23:24:55.529Z,1008.31
2019-02-19T23:25:56.922Z,1008.32
2019-02-19T23:26:58.326Z,1008.32
2019-02-19T23:27:59.758Z,1008.34
2019-02-19T23:29:01.185Z,1008.41
2019-02-19T23:30:02.674Z,1008.40
2019-02-19T23:31:04.097Z,1008.39
2019-02-19T23:32:05.532Z,1008.39
2019-02-19T23:33:06.990Z,1008.39
2019-02-19T23:34:08.491Z,1008.33
2019-02-19T23:35:09.964Z,1008.38
2019-02-19T23:36:11.459Z,1008.35
2019-02-19T23:37:12.842Z,1008.40
2019-02-19T23:38:14.248Z,1008.41
2019-02-19T23:39:15.659Z,1008.42
2019-02-19T23:40:17.054Z,1008.39
2019-02-19T23:41:18.456Z,1008.38
2019-02-19T23:42:19.847Z,1008.39
2019-02-19T23:43:21.251Z,1008.44
2019-02-19T23:44:22.780Z,1008.41
2019-02-19T23:45:24.254Z,1008.40
2019-02-19T23:46:25.766Z,1008.44
2019-02-19T23:47:27.248Z,1008.41
2019-02-19T23:48:28.711Z,1008.45
2019-02-19T23:49:30.189Z,1008.44
2019-02-19T23:50:31.612Z,1008.41
2019-02-19T23:51:33.135Z,1008.40
2019-02-19T23:52:34.647Z,1008.42
2019-02-19T23:53:36.134Z,1008.42
2019-02-19T23:54:37.587Z,1008.43
2019-02-19T23:55:39.037Z,1008.46
2019-02-19T23:56:40.525Z,1008.47
2019-02-19T23:57:41.974Z,1008.48
2019-02-19T23:58:43.419Z,1008.49
2019-02-19T23:59:44.873Z,1008.44
